Time;durP1;ratioP1;P1;durP2;ratioP2;P2;SDS_P1;SDS_P2;PMS_P1;PMS_P2;Temp;Humidity;BMP_temperature;BMP_pressure;BME280_temperature;BME280_humidity;BME280_pressure;Samples;Min_cycle;Max_cycle;Signal;HPM_P1;HPM_P2
2022/10/04 00:00:11;;;;;;;6.53;4.90;;;;;;;;;;5054634;28;20229;-83
2022/10/04 00:02:39;;;;;;;8.53;5.37;;;;;;;;;;5054177;28;20186;-84
2022/10/04 00:05:13;;;;;;;5.63;4.50;;;;;;;;;;5054329;28;20198;-84
2022/10/04 00:07:52;;;;;;;4.47;4.07;;;;;;;;;;5054875;28;20210;-83
2022/10/04 00:10:21;;;;;;;6.77;4.53;;;;;;;;;;5055943;28;20560;-83
2022/10/04 00:12:49;;;;;;;4.97;4.40;;;;;;;;;;5053889;28;20237;-82
2022/10/04 00:15:20;;;;;;;7.60;4.63;;;;;;;;;;5054400;28;20209;-83
2022/10/04 00:18:01;;;;;;;4.70;4.00;;;;;;;;;;5053749;28;20658;-84
2022/10/04 00:20:46;;;;;;;5.30;4.80;;;;;;;;;;5054041;28;20241;-83
2022/10/04 00:23:28;;;;;;;4.80;4.40;;;;;;;;;;5053831;28;20233;-83
2022/10/04 00:25:56;;;;;;;11.07;5.17;;;;;;;;;;5053920;28;20202;-83
2022/10/04 00:28:31;;;;;;;10.90;5.20;;;;;;;;;;5053265;28;20234;-83
2022/10/04 00:31:16;;;;;;;6.20;5.17;;;;;;;;;;5053936;28;20230;-84
2022/10/04 00:33:44;;;;;;;8.17;4.93;;;;;;;;;;5053560;28;20233;-83
2022/10/04 00:36:30;;;;;;;8.40;4.80;;;;;;;;;;5053842;28;20210;-83
2022/10/04 00:39:05;;;;;;;7.13;5.43;;;;;;;;;;5033431;28;20245;-83
2022/10/04 00:41:37;;;;;;;5.53;4.70;;;;;;;;;;5033880;28;20667;-83
2022/10/04 00:44:05;;;;;;;8.97;5.17;;;;;;;;;;5033584;28;20243;-83
2022/10/04 00:46:34;;;;;;;5.60;5.03;;;;;;;;;;5034184;28;20217;-84
2022/10/04 00:49:03;;;;;;;8.10;5.00;;;;;;;;;;5033171;28;20247;-83
2022/10/04 00:51:32;;;;;;;7.17;5.23;;;;;;;;;;5034057;28;20234;-83
2022/10/04 00:54:06;;;;;;;5.47;4.33;;;;;;;;;;5033280;28;20242;-83
2022/10/04 00:56:37;;;;;;;5.17;4.67;;;;;;;;;;5033296;28;20195;-83
2022/10/04 00:59:16;;;;;;;5.60;4.53;;;;;;;;;;5033017;28;20234;-84
2022/10/04 01:01:48;;;;;;;9.77;4.83;;;;;;;;;;5037929;28;20209;-83
2022/10/04 01:04:24;;;;;;;5.20;4.70;;;;;;;;;;5051841;28;20245;-83
2022/10/04 01:06:51;;;;;;;5.53;4.43;;;;;;;;;;5056955;28;20216;-83
2022/10/04 01:09:19;;;;;;;10.73;5.10;;;;;;;;;;5055544;28;20238;-92
2022/10/04 01:11:48;;;;;;;7.17;4.77;;;;;;;;;;5057733;28;20230;-92
2022/10/04 01:14:22;;;;;;;9.70;5.27;;;;;;;;;;5055482;28;20233;-92
2022/10/04 01:16:52;;;;;;;5.53;4.50;;;;;;;;;;5054854;28;20198;-91
2022/10/04 01:19:32;;;;;;;5.27;4.73;;;;;;;;;;5053716;28;20238;-91
2022/10/04 01:22:04;;;;;;;6.07;5.23;;;;;;;;;;5054579;28;20206;-92
2022/10/04 01:24:35;;;;;;;6.67;5.30;;;;;;;;;;5054025;28;20221;-91
2022/10/04 01:27:03;;;;;;;8.40;5.03;;;;;;;;;;5054627;28;20194;-92
2022/10/04 01:29:32;;;;;;;7.80;4.90;;;;;;;;;;5053766;28;20241;-92
2022/10/04 01:32:00;;;;;;;9.13;4.80;;;;;;;;;;5054341;28;20236;-92
2022/10/04 01:34:28;;;;;;;5.70;5.10;;;;;;;;;;5053642;28;20722;-92
2022/10/04 01:36:56;;;;;;;6.17;5.20;;;;;;;;;;5054428;28;20202;-92
2022/10/04 01:39:24;;;;;;;5.90;5.27;;;;;;;;;;5054796;28;20248;-92
2022/10/04 01:41:56;;;;;;;8.63;5.40;;;;;;;;;;5055936;28;20709;-91
2022/10/04 01:44:26;;;;;;;8.33;4.90;;;;;;;;;;5056156;28;20234;-92
2022/10/04 01:46:55;;;;;;;7.10;5.50;;;;;;;;;;5056164;28;20295;-92
2022/10/04 01:49:25;;;;;;;12.47;6.50;;;;;;;;;;5053480;28;20291;-92
2022/10/04 01:51:56;;;;;;;11.47;7.03;;;;;;;;;;5053926;28;20229;-92
2022/10/04 01:54:26;;;;;;;8.57;5.83;;;;;;;;;;5053348;28;20241;-92
2022/10/04 01:56:59;;;;;;;7.13;5.43;;;;;;;;;;5054117;28;20210;-92
2022/10/04 01:59:28;;;;;;;6.53;4.63;;;;;;;;;;5053978;28;20248;-92
2022/10/04 02:01:58;;;;;;;4.93;4.43;;;;;;;;;;5053737;28;20216;-91
2022/10/04 02:04:30;;;;;;;9.40;4.63;;;;;;;;;;5056840;28;20295;-91
2022/10/04 02:06:59;;;;;;;3.93;3.63;;;;;;;;;;5059160;28;20197;-92
2022/10/04 02:09:27;;;;;;;8.50;4.20;;;;;;;;;;5053151;28;20706;-91
2022/10/04 02:11:57;;;;;;;6.77;6.17;;;;;;;;;;5053808;28;20237;-91
2022/10/04 02:14:26;;;;;;;6.17;4.43;;;;;;;;;;5053445;28;20237;-90
2022/10/04 02:16:53;;;;;;;5.00;4.50;;;;;;;;;;5053609;28;20193;-92
2022/10/04 02:19:21;;;;;;;8.17;4.10;;;;;;;;;;5032756;28;20243;-92
2022/10/04 02:21:48;;;;;;;6.37;3.47;;;;;;;;;;5033857;28;20289;-92
2022/10/04 02:24:15;;;;;;;6.20;4.10;;;;;;;;;;5033040;28;20241;-91
2022/10/04 02:26:43;;;;;;;9.03;4.43;;;;;;;;;;5033967;28;20224;-92
2022/10/04 02:29:11;;;;;;;4.43;4.03;;;;;;;;;;5032762;28;20238;-92
2022/10/04 02:34:23;;;;;;;4.17;3.80;;;;;;;;;;5033174;28;20364;-92
2022/10/04 02:36:51;;;;;;;4.90;3.90;;;;;;;;;;5033733;28;20199;-93
2022/10/04 02:39:21;;;;;;;4.53;4.13;;;;;;;;;;5033283;28;20261;-91
2022/10/04 02:41:50;;;;;;;4.57;4.17;;;;;;;;;;5034106;28;20183;-91
2022/10/04 02:44:22;;;;;;;4.70;4.30;;;;;;;;;;5033069;28;20241;-91
2022/10/04 02:46:51;;;;;;;4.63;4.23;;;;;;;;;;5033679;28;20202;-91
2022/10/04 02:49:22;;;;;;;4.60;4.20;;;;;;;;;;5035789;28;20245;-91
2022/10/04 02:51:51;;;;;;;5.57;4.30;;;;;;;;;;5053835;28;20218;-92
2022/10/04 02:54:23;;;;;;;5.20;4.67;;;;;;;;;;5053265;28;20740;-91
2022/10/04 02:56:52;;;;;;;4.67;4.20;;;;;;;;;;5053942;28;20635;-92
2022/10/04 02:59:21;;;;;;;7.87;4.50;;;;;;;;;;5052849;28;20238;-92
2022/10/04 03:01:51;;;;;;;8.80;4.93;;;;;;;;;;5040773;28;20194;-92
2022/10/04 03:04:19;;;;;;;8.63;4.97;;;;;;;;;;5045919;28;20229;-91
2022/10/04 03:06:47;;;;;;;5.97;4.47;;;;;;;;;;5054012;28;20566;-91
2022/10/04 03:09:15;;;;;;;5.30;4.63;;;;;;;;;;5053355;28;20244;-91
2022/10/04 03:11:42;;;;;;;4.80;4.40;;;;;;;;;;5054281;28;20331;-91
2022/10/04 03:14:13;;;;;;;5.17;4.67;;;;;;;;;;5053265;28;20241;-92
2022/10/04 03:16:44;;;;;;;5.40;4.40;;;;;;;;;;5054005;28;20201;-92
2022/10/04 03:19:11;;;;;;;6.57;5.23;;;;;;;;;;5053110;28;20236;-92
2022/10/04 03:21:40;;;;;;;6.30;5.03;;;;;;;;;;5058205;28;20194;-92
2022/10/04 03:24:07;;;;;;;5.97;5.10;;;;;;;;;;5057552;28;20226;-91
2022/10/04 03:26:38;;;;;;;7.63;5.90;;;;;;;;;;5057895;28;20198;-92
2022/10/04 03:29:09;;;;;;;9.53;5.83;;;;;;;;;;5057391;28;20241;-92
2022/10/04 03:31:39;;;;;;;7.30;6.00;;;;;;;;;;5057475;28;20206;-92
2022/10/04 03:34:13;;;;;;;9.50;6.60;;;;;;;;;;5056647;28;21875;-92
2022/10/04 03:36:40;;;;;;;7.20;5.90;;;;;;;;;;5056962;28;20199;-92
2022/10/04 03:39:10;;;;;;;9.13;5.67;;;;;;;;;;5056433;28;20234;-92
2022/10/04 03:41:38;;;;;;;13.83;6.37;;;;;;;;;;5057292;28;20206;-92
2022/10/04 03:44:07;;;;;;;9.93;5.27;;;;;;;;;;5056948;28;20242;-92
2022/10/04 03:46:36;;;;;;;7.73;5.20;;;;;;;;;;5057775;28;20538;-92
2022/10/04 03:49:04;;;;;;;8.60;5.70;;;;;;;;;;5046825;28;20230;-92
2022/10/04 03:51:32;;;;;;;7.17;5.37;;;;;;;;;;5037287;28;20203;-92
2022/10/04 03:54:02;;;;;;;8.23;5.73;;;;;;;;;;5052885;28;20947;-92
2022/10/04 03:56:30;;;;;;;7.37;5.93;;;;;;;;;;5057394;28;20673;-92
2022/10/04 03:58:57;;;;;;;8.40;6.50;;;;;;;;;;5056914;28;20229;-92
2022/10/04 04:01:30;;;;;;;10.30;5.63;;;;;;;;;;5057205;28;20202;-92
2022/10/04 04:04:01;;;;;;;10.17;6.33;;;;;;;;;;5056448;28;20233;-92
2022/10/04 04:06:31;;;;;;;10.27;6.10;;;;;;;;;;5056422;28;20555;-93
2022/10/04 04:09:00;;;;;;;8.30;6.43;;;;;;;;;;5055916;28;20246;-92
2022/10/04 04:11:28;;;;;;;10.03;6.63;;;;;;;;;;5057007;28;20202;-91
2022/10/04 04:13:59;;;;;;;9.23;6.37;;;;;;;;;;5056982;28;20238;-94
2022/10/04 04:16:27;;;;;;;8.87;6.53;;;;;;;;;;5058528;28;20658;-93
2022/10/04 04:18:55;;;;;;;7.73;6.03;;;;;;;;;;5056522;28;20249;-93
2022/10/04 04:21:23;;;;;;;8.43;5.93;;;;;;;;;;5056618;28;20635;-93
2022/10/04 04:23:51;;;;;;;9.20;6.13;;;;;;;;;;5057027;28;20296;-94
2022/10/04 04:26:24;;;;;;;7.93;6.33;;;;;;;;;;5056840;28;20832;-94
2022/10/04 04:28:52;;;;;;;8.53;6.13;;;;;;;;;;5056284;28;20234;-94
2022/10/04 04:31:20;;;;;;;7.67;5.70;;;;;;;;;;5055783;28;20224;-94
2022/10/04 04:33:52;;;;;;;8.40;6.50;;;;;;;;;;5055859;28;20321;-94
2022/10/04 04:36:19;;;;;;;9.33;7.20;;;;;;;;;;5056516;28;20205;-94
2022/10/04 04:41:30;;;;;;;8.90;6.57;;;;;;;;;;5033633;28;20225;-94
2022/10/04 04:43:57;;;;;;;8.93;7.10;;;;;;;;;;5055817;28;20234;-94
2022/10/04 04:46:25;;;;;;;9.43;6.17;;;;;;;;;;5056460;28;20209;-94
2022/10/04 04:48:59;;;;;;;8.23;5.87;;;;;;;;;;5055643;28;20237;-94
2022/10/04 04:51:26;;;;;;;9.73;7.37;;;;;;;;;;5056098;28;20190;-94
2022/10/04 04:53:54;;;;;;;9.27;5.80;;;;;;;;;;5055225;28;20261;-95
2022/10/04 04:56:23;;;;;;;10.53;6.30;;;;;;;;;;5055569;28;20670;-95
2022/10/04 04:58:53;;;;;;;9.50;6.33;;;;;;;;;;5055346;28;20230;-94
2022/10/04 05:01:24;;;;;;;7.00;5.77;;;;;;;;;;5055980;28;20190;-94
2022/10/04 05:04:01;;;;;;;8.90;5.93;;;;;;;;;;5055245;28;20244;-94
2022/10/04 05:06:29;;;;;;;7.60;6.30;;;;;;;;;;5055796;28;20201;-94
2022/10/04 05:08:56;;;;;;;11.67;6.30;;;;;;;;;;5057897;28;20702;-94
2022/10/04 05:11:26;;;;;;;7.10;5.80;;;;;;;;;;5055228;28;20229;-92
2022/10/04 05:13:58;;;;;;;7.53;6.00;;;;;;;;;;5054913;28;20244;-91
2022/10/04 05:16:27;;;;;;;9.80;6.13;;;;;;;;;;5055311;28;20190;-92
2022/10/04 05:18:56;;;;;;;13.57;5.90;;;;;;;;;;5054385;28;20245;-91
2022/10/04 05:21:24;;;;;;;7.93;6.40;;;;;;;;;;5055755;28;20198;-92
2022/10/04 05:23:52;;;;;;;9.30;6.83;;;;;;;;;;5054302;28;20234;-92
2022/10/04 05:26:24;;;;;;;9.47;6.07;;;;;;;;;;5054853;28;20202;-89
2022/10/04 05:28:51;;;;;;;6.27;5.63;;;;;;;;;;5056921;28;20611;-92
2022/10/04 05:31:34;;;;;;;9.37;6.10;;;;;;;;;;5055186;28;20205;-92
2022/10/04 05:34:01;;;;;;;7.83;5.30;;;;;;;;;;5056031;28;20234;-91
2022/10/04 05:36:47;;;;;;;6.83;5.77;;;;;;;;;;5055281;28;20213;-93
2022/10/04 05:39:23;;;;;;;7.77;5.93;;;;;;;;;;5054956;28;20241;-92
2022/10/04 05:41:55;;;;;;;10.47;6.67;;;;;;;;;;5056196;28;20252;-92
2022/10/04 05:44:25;;;;;;;11.87;6.33;;;;;;;;;;5055609;28;20693;-92
2022/10/04 05:46:55;;;;;;;10.53;6.50;;;;;;;;;;5058432;28;20248;-92
2022/10/04 05:49:23;;;;;;;6.47;5.63;;;;;;;;;;5061016;28;20245;-93
2022/10/04 05:51:53;;;;;;;10.50;6.57;;;;;;;;;;5056036;28;20202;-92
2022/10/04 05:54:22;;;;;;;6.93;5.90;;;;;;;;;;5054994;28;20233;-93
2022/10/04 05:57:00;;;;;;;13.83;6.43;;;;;;;;;;5055069;28;20206;-92
2022/10/04 05:59:36;;;;;;;8.60;6.67;;;;;;;;;;5054030;28;20253;-93
2022/10/04 06:02:11;;;;;;;16.00;6.30;;;;;;;;;;5054935;28;20204;-92
2022/10/04 06:04:49;;;;;;;8.10;5.13;;;;;;;;;;5054330;28;20637;-92
2022/10/04 06:07:20;;;;;;;7.47;5.27;;;;;;;;;;5054663;28;20201;-91
2022/10/04 06:09:56;;;;;;;11.17;5.13;;;;;;;;;;5054121;28;20698;-92
2022/10/04 06:12:32;;;;;;;10.97;5.30;;;;;;;;;;5054291;28;20294;-92
2022/10/04 06:15:07;;;;;;;7.80;5.67;;;;;;;;;;5054108;28;20287;-91
2022/10/04 06:17:56;;;;;;;8.67;5.77;;;;;;;;;;5053814;28;20660;-91
2022/10/04 06:20:44;;;;;;;8.53;5.87;;;;;;;;;;5053311;28;20233;-92
2022/10/04 06:23:14;;;;;;;7.70;5.27;;;;;;;;;;5052490;28;20599;-89
2022/10/04 06:25:44;;;;;;;8.17;5.37;;;;;;;;;;5052738;28;20674;-89
2022/10/04 06:28:16;;;;;;;7.07;5.60;;;;;;;;;;5052227;28;20234;-89
2022/10/04 06:30:52;;;;;;;8.83;5.27;;;;;;;;;;5052924;28;20230;-89
2022/10/04 06:33:38;;;;;;;6.27;5.57;;;;;;;;;;5052139;28;20593;-90
2022/10/04 06:36:32;;;;;;;11.43;7.70;;;;;;;;;;5053823;28;20599;-89
2022/10/04 06:39:08;;;;;;;11.50;8.00;;;;;;;;;;5052893;28;20234;-89
2022/10/04 06:42:00;;;;;;;10.87;7.27;;;;;;;;;;5053613;28;20567;-90
2022/10/04 06:44:35;;;;;;;11.20;8.03;;;;;;;;;;5032919;28;20744;-89
2022/10/04 06:47:07;;;;;;;13.47;7.87;;;;;;;;;;5053686;28;20276;-90
2022/10/04 06:49:39;;;;;;;12.50;7.20;;;;;;;;;;5052995;28;20312;-90
2022/10/04 06:52:21;;;;;;;11.57;7.07;;;;;;;;;;5053653;28;20552;-90
2022/10/04 06:55:09;;;;;;;8.90;7.53;;;;;;;;;;5037045;28;20245;-88
2022/10/04 06:57:43;;;;;;;14.90;7.70;;;;;;;;;;5050132;28;20210;-89
2022/10/04 07:00:13;;;;;;;11.63;7.60;;;;;;;;;;5057308;28;20287;-88
2022/10/04 07:02:43;;;;;;;12.27;7.43;;;;;;;;;;5057285;28;20221;-89
2022/10/04 07:05:18;;;;;;;12.47;7.50;;;;;;;;;;5057812;28;20209;-89
2022/10/04 07:07:47;;;;;;;14.90;8.20;;;;;;;;;;5056829;28;20284;-89
2022/10/04 07:10:26;;;;;;;13.20;8.67;;;;;;;;;;5058247;28;20222;-89
2022/10/04 07:13:05;;;;;;;12.53;9.53;;;;;;;;;;5057283;28;20229;-81
2022/10/04 07:15:35;;;;;;;16.43;11.43;;;;;;;;;;5055561;28;20210;-81
2022/10/04 07:18:05;;;;;;;15.10;11.43;;;;;;;;;;5054956;28;20230;-81
2022/10/04 07:20:35;;;;;;;15.30;10.50;;;;;;;;;;5054956;28;20234;-82
2022/10/04 07:23:05;;;;;;;16.73;12.90;;;;;;;;;;5055175;28;20763;-81
2022/10/04 07:25:34;;;;;;;18.43;12.53;;;;;;;;;;5054994;28;20717;-81
2022/10/04 07:30:52;;;;;;;9.27;7.53;;;;;;;;;;5055050;28;20220;-79
2022/10/04 07:33:23;;;;;;;11.80;8.53;;;;;;;;;;5054160;28;20234;-80
2022/10/04 07:35:53;;;;;;;11.10;8.73;;;;;;;;;;5051135;28;20497;-80
2022/10/04 07:38:24;;;;;;;13.13;9.87;;;;;;;;;;5046917;28;20234;-81
2022/10/04 07:41:07;;;;;;;14.07;10.17;;;;;;;;;;5053757;28;20260;-80
2022/10/04 07:43:36;;;;;;;13.80;10.37;;;;;;;;;;5048264;28;20218;-81
2022/10/04 07:46:04;;;;;;;15.43;9.73;;;;;;;;;;5053769;28;20209;-81
2022/10/04 07:48:31;;;;;;;11.03;7.73;;;;;;;;;;5054045;28;20233;-81
2022/10/04 07:51:04;;;;;;;15.43;9.67;;;;;;;;;;5054613;28;20229;-82
2022/10/04 07:53:34;;;;;;;14.73;8.83;;;;;;;;;;5053864;28;20261;-83
2022/10/04 07:56:03;;;;;;;12.97;8.27;;;;;;;;;;5054439;28;20670;-82
2022/10/04 07:58:36;;;;;;;10.60;7.63;;;;;;;;;;5053700;28;20225;-81
2022/10/04 08:01:04;;;;;;;12.43;8.27;;;;;;;;;;5054183;28;20222;-82
2022/10/04 08:03:40;;;;;;;13.13;7.97;;;;;;;;;;5053633;28;20320;-82
2022/10/04 08:06:15;;;;;;;13.70;9.53;;;;;;;;;;5054803;28;20221;-82
2022/10/04 08:09:06;;;;;;;11.50;9.73;;;;;;;;;;5053929;28;20236;-82
2022/10/04 08:11:42;;;;;;;12.80;9.47;;;;;;;;;;5038863;28;20253;-82
2022/10/04 08:14:17;;;;;;;12.93;8.37;;;;;;;;;;5053732;28;20759;-81
2022/10/04 08:16:55;;;;;;;12.40;9.00;;;;;;;;;;5053711;28;20205;-82
2022/10/04 08:19:34;;;;;;;12.20;8.53;;;;;;;;;;5053135;28;20256;-81
2022/10/04 08:22:06;;;;;;;16.53;8.90;;;;;;;;;;5054175;28;20244;-82
2022/10/04 08:24:36;;;;;;;13.43;8.63;;;;;;;;;;5053298;28;20582;-81
2022/10/04 08:27:23;;;;;;;14.13;9.17;;;;;;;;;;5053907;28;20650;-82
2022/10/04 08:29:57;;;;;;;13.87;9.40;;;;;;;;;;5053144;28;20250;-83
2022/10/04 08:32:30;;;;;;;13.97;8.23;;;;;;;;;;5048305;28;20560;-82
2022/10/04 08:35:08;;;;;;;13.27;9.47;;;;;;;;;;5053284;28;20325;-83
2022/10/04 08:37:45;;;;;;;17.97;9.00;;;;;;;;;;5053272;28;20592;-81
2022/10/04 08:40:31;;;;;;;13.70;7.67;;;;;;;;;;5053942;28;20225;-83
2022/10/04 08:43:18;;;;;;;10.20;7.37;;;;;;;;;;5053461;28;20236;-82
2022/10/04 08:45:58;;;;;;;11.33;7.67;;;;;;;;;;5053247;28;20213;-84
2022/10/04 08:48:58;;;;;;;8.87;7.33;;;;;;;;;;5053276;28;20233;-82
2022/10/04 08:51:52;;;;;;;12.17;6.90;;;;;;;;;;4972278;28;20227;-83
2022/10/04 08:54:34;;;;;;;11.93;7.43;;;;;;;;;;4971626;28;20244;-82
2022/10/04 08:57:06;;;;;;;7.90;7.03;;;;;;;;;;5031086;28;20304;-81
2022/10/04 08:59:48;;;;;;;13.50;6.80;;;;;;;;;;5050696;28;20226;-82
2022/10/04 09:02:31;;;;;;;10.77;6.60;;;;;;;;;;5051815;28;20204;-84
2022/10/04 09:05:10;;;;;;;9.47;6.20;;;;;;;;;;5053468;28;20233;-82
2022/10/04 09:07:50;;;;;;;8.27;4.87;;;;;;;;;;5051828;28;20717;-81
2022/10/04 09:10:38;;;;;;;7.83;4.97;;;;;;;;;;5050920;28;20720;-80
2022/10/04 09:13:19;;;;;;;5.30;4.77;;;;;;;;;;5051634;28;20241;-81
2022/10/04 09:15:55;;;;;;;6.47;5.00;;;;;;;;;;5051790;28;20213;-81
2022/10/04 09:18:37;;;;;;;11.93;4.93;;;;;;;;;;5051135;28;20226;-82
2022/10/04 09:21:10;;;;;;;5.97;4.40;;;;;;;;;;5046546;28;20236;-82
2022/10/04 09:23:56;;;;;;;6.33;4.13;;;;;;;;;;5052397;28;20241;-82
2022/10/04 09:26:28;;;;;;;9.37;4.60;;;;;;;;;;5052762;28;20659;-82
2022/10/04 09:29:14;;;;;;;8.33;6.43;;;;;;;;;;5051751;28;20237;-80
2022/10/04 09:32:00;;;;;;;7.10;4.40;;;;;;;;;;5052551;28;20255;-81
2022/10/04 09:34:37;;;;;;;7.10;4.30;;;;;;;;;;5051827;28;20249;-81
2022/10/04 09:37:13;;;;;;;6.97;4.70;;;;;;;;;;5052663;28;20209;-81
2022/10/04 09:39:51;;;;;;;4.80;3.97;;;;;;;;;;5051635;28;20610;-81
2022/10/04 09:42:37;;;;;;;4.33;3.93;;;;;;;;;;5052660;28;20640;-81
2022/10/04 09:45:20;;;;;;;5.80;4.17;;;;;;;;;;5052065;28;20226;-82
2022/10/04 09:47:56;;;;;;;4.57;4.17;;;;;;;;;;5043594;28;20234;-82
2022/10/04 09:50:34;;;;;;;4.57;3.33;;;;;;;;;;5052383;28;20247;-81
2022/10/04 09:53:06;;;;;;;6.23;3.77;;;;;;;;;;5043401;28;20230;-81
2022/10/04 09:55:43;;;;;;;6.97;3.63;;;;;;;;;;5051927;28;20233;-82
2022/10/04 09:58:28;;;;;;;3.07;2.83;;;;;;;;;;5051342;28;20609;-82
2022/10/04 10:01:00;;;;;;;3.87;3.40;;;;;;;;;;5050963;28;20225;-82
2022/10/04 10:03:46;;;;;;;5.67;3.13;;;;;;;;;;5051943;28;20305;-82
2022/10/04 10:06:29;;;;;;;6.23;3.10;;;;;;;;;;5051959;28;20568;-82
2022/10/04 10:09:05;;;;;;;3.63;2.80;;;;;;;;;;5050011;28;20312;-82
2022/10/04 10:14:40;;;;;;;5.30;3.30;;;;;;;;;;5029357;28;20246;-81
2022/10/04 10:17:16;;;;;;;5.90;3.07;;;;;;;;;;5026465;28;20721;-82
2022/10/04 10:19:51;;;;;;;4.27;2.90;;;;;;;;;;5030774;28;20737;-82
2022/10/04 10:22:33;;;;;;;4.30;2.67;;;;;;;;;;5031416;28;20218;-82
2022/10/04 10:25:08;;;;;;;3.87;2.37;;;;;;;;;;5031228;28;20222;-82
2022/10/04 10:27:51;;;;;;;4.70;3.00;;;;;;;;;;5030937;28;20221;-82
2022/10/04 10:30:23;;;;;;;4.23;2.40;;;;;;;;;;5030705;28;20872;-82
2022/10/04 10:33:09;;;;;;;3.53;2.43;;;;;;;;;;5031144;28;20308;-82
2022/10/04 10:35:46;;;;;;;4.83;2.73;;;;;;;;;;5031397;28;20690;-82
2022/10/04 10:38:34;;;;;;;3.08;2.55;;;;;;;;;;5030798;28;20757;-82
2022/10/04 10:41:18;;;;;;;4.78;2.83;;;;;;;;;;5031701;28;20237;-82
2022/10/04 10:43:54;;;;;;;3.20;2.35;;;;;;;;;;5024150;28;20307;-82
2022/10/04 10:46:30;;;;;;;5.53;2.28;;;;;;;;;;5038332;28;20263;-82
2022/10/04 10:49:23;;;;;;;3.85;2.28;;;;;;;;;;5050321;28;20229;-82
2022/10/04 10:52:10;;;;;;;6.22;2.40;;;;;;;;;;5050907;28;20213;-82
2022/10/04 10:58:03;;;;;;;4.10;2.47;;;;;;;;;;5047033;28;20204;-83
2022/10/04 11:00:36;;;;;;;5.22;2.42;;;;;;;;;;5039124;28;20764;-82
2022/10/04 11:03:21;;;;;;;4.13;2.22;;;;;;;;;;5030404;28;20326;-82
2022/10/04 11:06:12;;;;;;;2.03;1.90;;;;;;;;;;5046045;28;20197;-82
2022/10/04 11:08:58;;;;;;;6.03;2.30;;;;;;;;;;5049994;28;20717;-82
2022/10/04 11:11:46;;;;;;;3.20;2.00;;;;;;;;;;5050973;28;20251;-82
2022/10/04 11:14:32;;;;;;;4.60;2.50;;;;;;;;;;5032978;28;20658;-82
2022/10/04 11:17:09;;;;;;;2.70;2.45;;;;;;;;;;5030899;28;20215;-83
2022/10/04 11:19:55;;;;;;;3.67;2.90;;;;;;;;;;5030023;28;20249;-83
2022/10/04 11:22:34;;;;;;;12.50;3.70;;;;;;;;;;5045188;28;20202;-83
2022/10/04 11:25:24;;;;;;;6.03;2.90;;;;;;;;;;5050980;28;20209;-83
2022/10/04 11:27:55;;;;;;;4.90;2.40;;;;;;;;;;5050488;28;20230;-83
2022/10/04 11:30:25;;;;;;;6.10;2.33;;;;;;;;;;5048911;28;20233;-83
2022/10/04 11:33:10;;;;;;;6.63;2.65;;;;;;;;;;5047030;28;20694;-83
2022/10/04 11:36:01;;;;;;;7.03;3.67;;;;;;;;;;5050743;28;20712;-83
2022/10/04 11:38:46;;;;;;;4.88;2.05;;;;;;;;;;5011668;28;20227;-83
2022/10/04 11:41:15;;;;;;;4.07;2.42;;;;;;;;;;5052064;28;20253;-83
2022/10/04 11:43:57;;;;;;;2.83;2.10;;;;;;;;;;5039656;28;20234;-83
2022/10/04 11:46:34;;;;;;;5.60;2.65;;;;;;;;;;5025689;28;20206;-82
2022/10/04 11:49:07;;;;;;;6.10;3.28;;;;;;;;;;5033611;28;20234;-83
2022/10/04 11:51:55;;;;;;;5.47;2.55;;;;;;;;;;5034497;28;20589;-83
2022/10/04 11:54:40;;;;;;;4.75;2.25;;;;;;;;;;5043836;28;20236;-83
2022/10/04 11:57:13;;;;;;;9.10;3.33;;;;;;;;;;5053119;28;20205;-83
2022/10/04 11:59:47;;;;;;;4.10;2.55;;;;;;;;;;5040428;28;20267;-83
2022/10/04 12:02:32;;;;;;;5.18;2.17;;;;;;;;;;5054087;28;20209;-83
2022/10/04 12:05:13;;;;;;;4.30;2.45;;;;;;;;;;5030649;28;20299;-80
2022/10/04 12:07:46;;;;;;;4.22;2.50;;;;;;;;;;5050245;28;20206;-83
2022/10/04 12:10:20;;;;;;;3.90;2.58;;;;;;;;;;5053807;28;20674;-83
2022/10/04 12:13:05;;;;;;;4.53;2.20;;;;;;;;;;5053485;28;20248;-83
2022/10/04 12:15:39;;;;;;;4.43;1.92;;;;;;;;;;5053640;28;20697;-83
2022/10/04 12:18:31;;;;;;;4.05;2.17;;;;;;;;;;5053027;28;20310;-81
2022/10/04 12:21:22;;;;;;;2.67;2.17;;;;;;;;;;5043384;28;20238;-81
2022/10/04 12:24:03;;;;;;;6.55;1.95;;;;;;;;;;5053038;28;20229;-81
2022/10/04 12:26:51;;;;;;;4.30;2.10;;;;;;;;;;5053204;28;20229;-82
2022/10/04 12:29:33;;;;;;;2.65;1.70;;;;;;;;;;5042897;28;20268;-84
2022/10/04 12:32:04;;;;;;;2.15;1.73;;;;;;;;;;5054517;28;20827;-83
2022/10/04 12:34:37;;;;;;;2.88;1.58;;;;;;;;;;5053404;28;20234;-84
2022/10/04 12:37:14;;;;;;;2.30;1.75;;;;;;;;;;5053879;28;20252;-84
2022/10/04 12:39:49;;;;;;;4.45;2.10;;;;;;;;;;5053195;28;20246;-84
2022/10/04 12:42:23;;;;;;;3.35;1.67;;;;;;;;;;5053733;28;20194;-84
2022/10/04 12:44:59;;;;;;;2.08;1.58;;;;;;;;;;5053184;28;20226;-84
2022/10/04 12:47:47;;;;;;;1.88;1.70;;;;;;;;;;5053103;28;20193;-82
2022/10/04 12:50:20;;;;;;;3.65;1.67;;;;;;;;;;5047857;28;20237;-82
2022/10/04 12:52:50;;;;;;;2.05;1.65;;;;;;;;;;5051843;28;20345;-83
2022/10/04 12:55:22;;;;;;;4.25;1.85;;;;;;;;;;5052863;28;20234;-82
2022/10/04 12:57:52;;;;;;;2.53;1.73;;;;;;;;;;5047998;28;20234;-83
2022/10/04 13:00:21;;;;;;;3.65;1.65;;;;;;;;;;5032713;28;20234;-82
2022/10/04 13:03:01;;;;;;;3.67;1.90;;;;;;;;;;5032718;28;20238;-82
2022/10/04 13:05:32;;;;;;;4.53;1.90;;;;;;;;;;5040156;28;20214;-82
2022/10/04 13:08:04;;;;;;;3.63;1.70;;;;;;;;;;5032302;28;20685;-82
2022/10/04 13:10:43;;;;;;;5.57;1.90;;;;;;;;;;5032590;28;20235;-83
2022/10/04 13:13:37;;;;;;;4.85;1.60;;;;;;;;;;5044196;28;20244;-83
2022/10/04 13:16:09;;;;;;;3.50;1.70;;;;;;;;;;5032724;28;20276;-84
2022/10/04 13:18:40;;;;;;;2.85;1.50;;;;;;;;;;5032284;28;20235;-83
2022/10/04 13:21:10;;;;;;;1.73;1.63;;;;;;;;;;5047157;28;20238;-82
2022/10/04 13:23:45;;;;;;;4.45;1.67;;;;;;;;;;5051171;28;20233;-82
2022/10/04 13:26:28;;;;;;;4.20;1.45;;;;;;;;;;5051442;28;20198;-82
2022/10/04 13:29:01;;;;;;;4.00;1.60;;;;;;;;;;5051726;28;20233;-83
2022/10/04 13:31:33;;;;;;;2.55;1.83;;;;;;;;;;5042725;28;20725;-83
2022/10/04 13:34:04;;;;;;;2.60;1.55;;;;;;;;;;5043008;28;20226;-83
2022/10/04 13:36:37;;;;;;;1.75;1.55;;;;;;;;;;5032725;28;20238;-85
2022/10/04 13:39:19;;;;;;;2.47;1.38;;;;;;;;;;5032213;28;20242;-84
2022/10/04 13:41:56;;;;;;;1.58;1.48;;;;;;;;;;5039496;28;20216;-84
2022/10/04 13:44:36;;;;;;;1.58;1.42;;;;;;;;;;5051428;28;20709;-84
2022/10/04 13:47:22;;;;;;;2.42;1.55;;;;;;;;;;5052420;28;20201;-83
2022/10/04 13:49:55;;;;;;;1.73;1.35;;;;;;;;;;5051684;28;20718;-84
2022/10/04 13:58:11;;;;;;;1.85;1.40;;;;;;;;;;5051600;28;20233;-84
2022/10/04 14:00:48;;;;;;;2.95;1.67;;;;;;;;;;5052130;28;20230;-83
2022/10/04 14:03:34;;;;;;;2.25;1.65;;;;;;;;;;5051513;28;20237;-84
2022/10/04 14:06:29;;;;;;;2.42;1.80;;;;;;;;;;5052275;28;20214;-84
2022/10/04 14:09:18;;;;;;;2.67;1.80;;;;;;;;;;5026877;28;20229;-84
2022/10/04 14:11:57;;;;;;;2.50;1.50;;;;;;;;;;5052066;28;20190;-83
2022/10/04 14:14:42;;;;;;;2.78;1.80;;;;;;;;;;5050968;28;20241;-83
2022/10/04 14:17:37;;;;;;;1.98;1.27;;;;;;;;;;5030832;28;20237;-83
2022/10/04 14:20:22;;;;;;;3.45;1.75;;;;;;;;;;5037883;28;20279;-83
2022/10/04 14:22:59;;;;;;;3.05;1.60;;;;;;;;;;5051187;28;20592;-84
2022/10/04 14:25:53;;;;;;;2.70;1.75;;;;;;;;;;5051888;28;20247;-83
2022/10/04 14:28:40;;;;;;;2.28;1.83;;;;;;;;;;5050846;28;20233;-83
2022/10/04 14:31:18;;;;;;;1.67;1.33;;;;;;;;;;5051572;28;20229;-83
2022/10/04 14:34:02;;;;;;;3.30;1.42;;;;;;;;;;5051065;28;20238;-84
2022/10/04 14:36:47;;;;;;;1.60;1.50;;;;;;;;;;5051801;28;20217;-83
2022/10/04 14:39:34;;;;;;;2.85;1.50;;;;;;;;;;5050831;28;20233;-83
2022/10/04 14:42:20;;;;;;;1.52;1.42;;;;;;;;;;5051866;28;20190;-83
2022/10/04 14:45:03;;;;;;;3.70;1.65;;;;;;;;;;5051131;28;20268;-83
2022/10/04 14:47:49;;;;;;;1.60;1.40;;;;;;;;;;5050994;28;20624;-84
2022/10/04 14:50:24;;;;;;;1.60;1.50;;;;;;;;;;5051928;28;20240;-83
2022/10/04 14:53:02;;;;;;;1.98;1.35;;;;;;;;;;5051593;28;20287;-84
2022/10/04 14:55:38;;;;;;;3.78;1.75;;;;;;;;;;5051001;28;20576;-83
2022/10/04 14:58:15;;;;;;;1.50;1.40;;;;;;;;;;5051084;28;20225;-84
2022/10/04 15:00:54;;;;;;;3.40;1.60;;;;;;;;;;5051754;28;20279;-83
2022/10/04 15:03:30;;;;;;;4.45;1.90;;;;;;;;;;5051383;28;20317;-83
2022/10/04 15:06:05;;;;;;;2.42;1.75;;;;;;;;;;5052148;28;20545;-83
2022/10/04 15:08:42;;;;;;;2.20;1.70;;;;;;;;;;5051211;28;20233;-83
2022/10/04 15:11:13;;;;;;;1.50;1.40;;;;;;;;;;5051503;28;20213;-84
2022/10/04 15:13:48;;;;;;;5.45;1.30;;;;;;;;;;5051210;28;20283;-83
2022/10/04 15:16:20;;;;;;;2.00;1.60;;;;;;;;;;5053230;28;20221;-84
2022/10/04 15:18:51;;;;;;;1.83;1.60;;;;;;;;;;5055425;28;20709;-83
2022/10/04 15:21:37;;;;;;;2.72;1.55;;;;;;;;;;5055819;28;20222;-83
2022/10/04 15:24:22;;;;;;;1.67;1.58;;;;;;;;;;5055266;28;20709;-83
2022/10/04 15:27:07;;;;;;;3.13;1.63;;;;;;;;;;5060946;28;20217;-83
2022/10/04 15:29:40;;;;;;;1.60;1.50;;;;;;;;;;5026179;28;20241;-84
2022/10/04 15:32:16;;;;;;;2.97;1.65;;;;;;;;;;5056872;28;20202;-83
2022/10/04 15:34:48;;;;;;;2.92;2.47;;;;;;;;;;5055073;28;20238;-84
2022/10/04 15:37:24;;;;;;;2.58;1.45;;;;;;;;;;5055040;28;20233;-84
2022/10/04 15:40:15;;;;;;;1.95;1.23;;;;;;;;;;5054445;28;20241;-84
2022/10/04 15:42:58;;;;;;;3.45;2.03;;;;;;;;;;5039176;28;20217;-85
2022/10/04 15:45:47;;;;;;;2.63;1.40;;;;;;;;;;5054558;28;20289;-84
2022/10/04 15:48:31;;;;;;;1.70;1.60;;;;;;;;;;5054308;28;20233;-84